Time;durP1;ratioP1;P1;durP2;ratioP2;P2;SDS_P1;SDS_P2;PMS_P1;PMS_P2;Temp;Humidity;BMP_temperature;BMP_pressure;BME280_temperature;BME280_humidity;BME280_pressure;Samples;Min_cycle;Max_cycle;Signal;HPM_P1;HPM_P2
2022/09/18 00:05:34;;;;;;;0.98;0.40;;;11.30;99.90;;;;;;20948636;28;20032;-38
2022/09/18 00:15:36;;;;;;;1.30;0.38;;;11.20;99.90;;;;;;20937763;28;20052;-38
2022/09/18 00:25:37;;;;;;;1.13;0.50;;;11.20;99.90;;;;;;20954368;28;20130;-38
2022/09/18 00:35:44;;;;;;;4.63;0.70;;;11.20;99.90;;;;;;20959842;28;20051;-38
2022/09/18 00:46:08;;;;;;;4.15;1.63;;;11.30;99.90;;;;;;20966669;28;20205;-38
2022/09/18 00:56:13;;;;;;;1.85;0.40;;;11.40;99.90;;;;;;20971908;28;20068;-38
2022/09/18 01:06:20;;;;;;;1.55;0.75;;;11.30;99.90;;;;;;20994027;28;20344;-38
2022/09/18 01:16:34;;;;;;;1.52;0.65;;;11.30;99.90;;;;;;20961225;28;20106;-38
2022/09/18 01:26:54;;;;;;;1.48;0.30;;;11.40;99.90;;;;;;20981367;28;20090;-39
2022/09/18 01:37:19;;;;;;;2.13;0.95;;;11.40;99.90;;;;;;20968431;28;20799;-39
2022/09/18 01:47:23;;;;;;;1.92;0.40;;;11.40;99.90;;;;;;20961443;28;20111;-38
2022/09/18 01:57:34;;;;;;;2.10;0.80;;;11.50;99.90;;;;;;20959748;28;20643;-38
2022/09/18 02:08:06;;;;;;;1.65;0.43;;;11.50;99.90;;;;;;20964321;28;20477;-38
2022/09/18 02:18:19;;;;;;;6.13;0.95;;;11.40;99.90;;;;;;20947400;28;21596;-38
2022/09/18 02:28:22;;;;;;;2.33;0.20;;;11.30;99.90;;;;;;20971570;28;20087;-38
2022/09/18 02:39:02;;;;;;;1.08;0.30;;;11.20;99.90;;;;;;22002653;22;20044;-79
2022/09/18 02:49:17;;;;;;;1.70;0.47;;;11.10;99.90;;;;;;20941539;28;20741;-80
2022/09/18 02:59:43;;;;;;;1.48;0.20;;;11.00;99.90;;;;;;20970480;28;20044;-79
2022/09/18 03:09:45;;;;;;;9.75;2.22;;;11.00;99.90;;;;;;20970514;28;20714;-79
2022/09/18 03:19:46;;;;;;;1.58;0.22;;;11.10;99.90;;;;;;20945748;28;20082;-79
2022/09/18 03:29:47;;;;;;;1.00;0.28;;;11.10;99.90;;;;;;20969275;28;20041;-79
2022/09/18 03:39:48;;;;;;;0.55;0.20;;;11.10;99.90;;;;;;20923745;28;20055;-79
2022/09/18 03:49:49;;;;;;;0.43;0.08;;;11.10;99.90;;;;;;20962635;28;20043;-80
2022/09/18 03:59:50;;;;;;;1.55;0.28;;;11.10;99.90;;;;;;20954611;28;20041;-80
2022/09/18 04:09:51;;;;;;;0.57;0.22;;;11.10;99.90;;;;;;20954696;28;20077;-80
2022/09/18 04:19:53;;;;;;;1.55;0.30;;;11.10;99.90;;;;;;20962255;28;20036;-80
2022/09/18 04:29:54;;;;;;;1.55;0.57;;;11.10;99.90;;;;;;20943709;28;20036;-80
2022/09/18 04:39:55;;;;;;;3.33;0.40;;;11.20;99.90;;;;;;20927384;28;20618;-80
2022/09/18 04:49:58;;;;;;;1.80;0.38;;;11.30;99.90;;;;;;20940186;28;20059;-79
2022/09/18 04:59:59;;;;;;;1.40;0.38;;;11.20;99.90;;;;;;20941404;28;20036;-79
2022/09/18 05:10:00;;;;;;;1.33;0.55;;;11.00;99.90;;;;;;20956718;28;20056;-80
2022/09/18 05:20:02;;;;;;;0.55;0.15;;;11.00;99.90;;;;;;20966348;28;20036;-80
2022/09/18 05:30:03;;;;;;;1.20;0.30;;;10.90;99.90;;;;;;20975083;28;20033;-80
2022/09/18 05:40:05;;;;;;;0.98;0.20;;;10.90;99.90;;;;;;20946149;28;20057;-80
2022/09/18 05:50:07;;;;;;;0.47;0.40;;;10.80;99.90;;;;;;20950664;28;20067;-80
2022/09/18 06:00:09;;;;;;;0.70;0.20;;;10.90;99.90;;;;;;20988621;28;20048;-80
2022/09/18 06:10:10;;;;;;;1.70;0.57;;;11.00;99.90;;;;;;20954006;28;20033;-79
2022/09/18 06:20:11;;;;;;;2.80;0.43;;;11.10;99.90;;;;;;20976601;28;20056;-79
2022/09/18 06:30:12;;;;;;;1.63;0.40;;;11.20;99.90;;;;;;20963334;28;20277;-79
2022/09/18 06:40:13;;;;;;;9.27;1.27;;;11.40;99.90;;;;;;20930449;28;20102;-79
2022/09/18 06:50:14;;;;;;;0.80;0.20;;;11.40;99.90;;;;;;20917527;28;20086;-79
2022/09/18 07:00:15;;;;;;;0.77;0.20;;;11.50;99.90;;;;;;20913540;28;20137;-79
2022/09/18 07:10:16;;;;;;;2.10;0.32;;;11.60;99.90;;;;;;20927498;28;20090;-80
2022/09/18 07:20:18;;;;;;;1.45;0.68;;;11.80;99.90;;;;;;20946378;28;20098;-80
2022/09/18 07:30:20;;;;;;;0.73;0.17;;;11.90;99.90;;;;;;20916876;28;20094;-80
2022/09/18 07:40:21;;;;;;;4.00;0.43;;;12.20;99.90;;;;;;20916643;28;20036;-80
2022/09/18 07:50:22;;;;;;;6.78;0.90;;;12.30;99.90;;;;;;20931418;28;20496;-82
2022/09/18 08:00:24;;;;;;;1.98;0.40;;;12.60;99.90;;;;;;20921118;28;20129;-80
2022/09/18 08:10:25;;;;;;;1.65;0.63;;;12.60;99.90;;;;;;20944854;28;20240;-81
2022/09/18 08:20:26;;;;;;;0.93;0.30;;;12.30;99.90;;;;;;20935813;28;20040;-80
2022/09/18 08:30:28;;;;;;;0.70;0.10;;;12.20;99.90;;;;;;20952314;28;20515;-82
2022/09/18 08:40:41;;;;;;;1.65;0.70;;;12.50;99.90;;;;;;20907320;28;20369;-80
2022/09/18 08:50:55;;;;;;;1.38;0.60;;;12.50;99.90;;;;;;20931198;28;20056;-80
2022/09/18 09:01:02;;;;;;;1.38;0.20;;;12.40;99.90;;;;;;20959456;28;20037;-79
2022/09/18 09:11:52;;;;;;;0.68;0.20;;;12.30;99.90;;;;;;20942553;28;20041;-82
2022/09/18 09:22:36;;;;;;;1.15;0.38;;;12.30;99.90;;;;;;20859188;28;20823;-80
2022/09/18 09:32:52;;;;;;;3.83;0.85;;;12.30;99.90;;;;;;20679626;28;20702;-81
2022/09/18 09:43:21;;;;;;;0.68;0.22;;;12.50;99.90;;;;;;20953239;28;20676;-81
2022/09/18 09:53:24;;;;;;;1.30;0.30;;;12.50;99.90;;;;;;20939899;28;20805;-82
2022/09/18 10:03:55;;;;;;;1.73;0.32;;;12.60;99.90;;;;;;20970896;28;20040;-82
2022/09/18 10:13:59;;;;;;;1.52;0.50;;;12.70;99.90;;;;;;20989362;28;20770;-81
2022/09/18 10:24:24;;;;;;;1.17;0.30;;;12.90;99.90;;;;;;20998029;28;20090;-82
2022/09/18 10:34:46;;;;;;;1.45;0.20;;;13.00;99.90;;;;;;20993507;28;21703;-81
2022/09/18 10:44:53;;;;;;;0.93;0.30;;;13.10;99.90;;;;;;20976618;28;20937;-82
2022/09/18 10:55:04;;;;;;;1.90;0.80;;;13.10;99.90;;;;;;20993205;28;20169;-81
2022/09/18 11:05:18;;;;;;;1.38;0.20;;;13.00;99.90;;;;;;20970839;28;20044;-82
2022/09/18 11:15:23;;;;;;;1.02;0.30;;;12.80;99.90;;;;;;20953771;28;20037;-82
2022/09/18 11:25:26;;;;;;;1.58;0.30;;;12.60;99.90;;;;;;20956003;28;20070;-82
2022/09/18 11:35:30;;;;;;;1.60;0.35;;;12.60;99.90;;;;;;20935933;28;20546;-82
2022/09/18 11:45:58;;;;;;;0.80;0.35;;;12.70;99.90;;;;;;20940208;28;20082;-84
2022/09/18 11:56:03;;;;;;;0.93;0.33;;;12.80;99.90;;;;;;20915812;28;20655;-82
2022/09/18 12:06:30;;;;;;;0.38;0.13;;;12.80;99.90;;;;;;20917252;28;20048;-82
2022/09/18 12:17:13;;;;;;;1.10;0.30;;;13.00;99.90;;;;;;20920924;28;20875;-82
2022/09/18 12:27:36;;;;;;;1.00;0.20;;;13.20;99.90;;;;;;20757260;28;20715;-81
2022/09/18 12:38:08;;;;;;;1.58;0.43;;;13.10;99.90;;;;;;20912589;28;22720;-82
2022/09/18 12:48:37;;;;;;;1.40;0.17;;;13.00;99.90;;;;;;20914382;28;20665;-82
2022/09/18 12:59:22;;;;;;;1.02;0.30;;;12.50;99.90;;;;;;20919674;28;20706;-80
2022/09/18 13:09:31;;;;;;;1.08;0.10;;;11.90;99.90;;;;;;20903770;28;20760;-80
2022/09/18 13:19:39;;;;;;;0.77;0.40;;;11.60;99.90;;;;;;20950090;28;20041;-80
2022/09/18 13:29:50;;;;;;;1.00;0.17;;;11.60;99.90;;;;;;20954161;28;20031;-80
2022/09/18 13:40:07;;;;;;;2.03;0.82;;;11.70;99.90;;;;;;20913601;28;20044;-80
2022/09/18 13:50:17;;;;;;;1.45;0.45;;;11.90;99.90;;;;;;20934284;28;20093;-81
2022/09/18 14:00:18;;;;;;;2.03;0.80;;;12.00;99.90;;;;;;20922403;28;20059;-81
2022/09/18 14:10:27;;;;;;;2.22;1.10;;;12.00;99.90;;;;;;20931508;28;20163;-82
2022/09/18 14:20:29;;;;;;;0.90;0.40;;;12.10;99.90;;;;;;20933561;28;20047;-81
2022/09/18 14:30:30;;;;;;;5.82;1.35;;;12.20;99.90;;;;;;20929455;28;20037;-81
2022/09/18 14:40:34;;;;;;;1.48;0.30;;;12.30;99.90;;;;;;20952495;28;20049;-81
2022/09/18 14:50:36;;;;;;;0.63;0.22;;;12.30;99.90;;;;;;20948631;28;20067;-81
2022/09/18 15:00:40;;;;;;;3.80;0.68;;;12.20;99.90;;;;;;20948912;28;20036;-82
2022/09/18 15:10:46;;;;;;;0.50;0.13;;;12.30;99.90;;;;;;20929667;28;20074;-82
2022/09/18 15:20:52;;;;;;;1.48;0.45;;;12.20;99.90;;;;;;20943023;28;20449;-81
2022/09/18 15:30:59;;;;;;;1.23;0.20;;;12.10;99.90;;;;;;20952099;28;20149;-79
2022/09/18 15:41:40;;;;;;;3.17;1.20;;;12.00;99.90;;;;;;20947963;28;20759;-80
2022/09/18 15:51:41;;;;;;;0.25;0.10;;;11.90;99.90;;;;;;20942808;28;20154;-80
2022/09/18 16:01:46;;;;;;;0.40;0.10;;;11.70;99.90;;;;;;20974610;28;20041;-79
2022/09/18 16:11:50;;;;;;;1.20;0.30;;;11.40;99.90;;;;;;20971980;28;20090;-80
2022/09/18 16:21:52;;;;;;;2.92;0.85;;;11.20;99.90;;;;;;20953212;28;20134;-84
2022/09/18 16:31:53;;;;;;;0.80;0.30;;;11.00;99.90;;;;;;20928405;28;20028;-83
2022/09/18 16:41:54;;;;;;;1.13;0.30;;;11.00;99.90;;;;;;20959370;28;20044;-82
2022/09/18 16:51:56;;;;;;;1.15;0.30;;;10.90;99.90;;;;;;20973413;28;20048;-83
2022/09/18 17:01:58;;;;;;;2.30;0.70;;;10.90;99.90;;;;;;20915816;28;20040;-81
2022/09/18 17:11:59;;;;;;;7.22;0.88;;;10.80;99.90;;;;;;20938337;28;20137;-81
2022/09/18 17:22:00;;;;;;;3.45;1.42;;;10.80;99.90;;;;;;20919326;28;20045;-81
2022/09/18 17:32:02;;;;;;;1.52;0.70;;;10.80;99.90;;;;;;20953415;28;20043;-82
2022/09/18 17:42:03;;;;;;;1.55;0.52;;;10.70;99.90;;;;;;20911792;28;20052;-82
2022/09/18 17:52:04;;;;;;;1.25;0.50;;;10.60;99.90;;;;;;20928935;28;20084;-81
2022/09/18 18:02:07;;;;;;;3.95;2.05;;;10.40;99.90;;;;;;20921886;28;20045;-81
2022/09/18 18:12:08;;;;;;;1.23;0.70;;;10.40;99.90;;;;;;20927883;28;20090;-81
2022/09/18 18:22:09;;;;;;;1.13;0.70;;;10.30;99.90;;;;;;20903730;28;20049;-81
2022/09/18 18:32:11;;;;;;;1.30;0.70;;;10.20;99.90;;;;;;20907992;28;20043;-81
2022/09/18 18:42:13;;;;;;;2.10;0.60;;;10.10;99.90;;;;;;20919926;28;21798;-81
2022/09/18 18:52:14;;;;;;;0.88;0.40;;;10.00;99.90;;;;;;20907493;28;20033;-80
2022/09/18 19:02:16;;;;;;;2.28;0.70;;;9.90;99.90;;;;;;20912669;28;20059;-80
2022/09/18 19:12:17;;;;;;;1.73;0.47;;;9.90;99.90;;;;;;20896039;28;20048;-80
2022/09/18 19:22:18;;;;;;;1.95;0.88;;;9.80;99.90;;;;;;20883343;28;20037;-80
2022/09/18 19:32:19;;;;;;;1.40;0.60;;;9.70;99.90;;;;;;20887376;28;20136;-80
2022/09/18 19:42:24;;;;;;;3.60;1.75;;;9.60;99.90;;;;;;20891840;28;20037;-80
2022/09/18 19:52:27;;;;;;;3.75;1.83;;;9.50;99.90;;;;;;20923204;28;20037;-80
2022/09/18 20:02:28;;;;;;;1.92;1.05;;;9.40;99.90;;;;;;20928554;28;20095;-80
2022/09/18 20:12:29;;;;;;;0.80;0.30;;;9.30;99.90;;;;;;20889879;28;20263;-80
2022/09/18 20:22:30;;;;;;;1.88;0.80;;;9.20;99.90;;;;;;20892870;28;20037;-79
2022/09/18 20:32:31;;;;;;;1.92;0.93;;;9.10;99.90;;;;;;20868652;28;20036;-79
2022/09/18 20:42:33;;;;;;;2.13;0.98;;;9.00;99.90;;;;;;20939932;28;20082;-78
2022/09/18 20:52:36;;;;;;;3.33;1.08;;;8.90;99.90;;;;;;20946641;28;20037;-78
2022/09/18 21:02:37;;;;;;;1.45;0.52;;;8.90;99.90;;;;;;20936484;28;20114;-78
2022/09/18 21:12:38;;;;;;;4.15;1.33;;;8.90;99.90;;;;;;20959145;28;20044;-78
2022/09/18 21:23:52;;;;;;;1.42;0.40;;;8.90;99.90;;;;;;20938409;28;20044;-78
2022/09/18 21:33:01;;;;;;;4.22;0.65;;;8.90;99.90;;;;;;20959255;28;20063;-78
2022/09/18 21:43:03;;;;;;;2.20;0.85;;;8.90;99.90;;;;;;20938392;28;20045;-78
2022/09/18 21:53:04;;;;;;;6.82;1.13;;;9.10;99.90;;;;;;20926916;28;20040;-79
2022/09/18 22:03:05;;;;;;;1.50;0.68;;;9.40;99.90;;;;;;20947721;28;20041;-80
2022/09/18 22:13:06;;;;;;;2.05;0.80;;;9.50;99.90;;;;;;20942269;28;20047;-78
2022/09/18 22:23:07;;;;;;;0.60;0.22;;;9.50;99.90;;;;;;20964007;28;20067;-78
2022/09/18 22:33:09;;;;;;;0.93;0.30;;;9.40;99.90;;;;;;20952574;28;20040;-78
2022/09/18 22:43:14;;;;;;;2.33;0.88;;;9.20;99.90;;;;;;20953191;28;20048;-78
2022/09/18 22:53:16;;;;;;;2.08;0.40;;;9.30;99.90;;;;;;20945191;28;20102;-79
2022/09/18 23:03:16;;;;;;;1.35;0.30;;;9.30;99.90;;;;;;20965362;28;20087;-79
2022/09/18 23:13:21;;;;;;;1.00;0.40;;;9.40;99.90;;;;;;20959321;28;20028;-79
2022/09/18 23:23:22;;;;;;;0.77;0.40;;;9.40;99.90;;;;;;20933739;28;20044;-79
2022/09/18 23:33:24;;;;;;;1.98;0.57;;;9.30;99.90;;;;;;20945257;28;20044;-79
2022/09/18 23:43:25;;;;;;;2.05;0.50;;;9.30;99.90;;;;;;20940212;28;20041;-80
2022/09/18 23:53:28;;;;;;;2.75;0.73;;;9.20;99.90;;;;;;20945157;28;20033;-79
